Edgewood, South Carolina
Current Conditions -  °F | °C
As of 2:53 AM on Monday 26 Jan 2015 (Local Time) from KCUB Reporting Station
Clear Clear  
Wind Chill: 42°   Ceiling: Unl
Heat Index: 45°   Visibility: 10mi
Dew Point: 36°   Wind: 6mph
Humidity: 71%   Direction: 190°S
Pressure: 29.71"   Gusts: NA
Location:  34.0268°N, 81.0007°W
Report Text: KCUB 260753Z AUTO 19005KT 10SM CLR 07/02 A2971 RMK AO2 SLP061 T00720022
Loading
Personal Weather Stations






























Interactive Weather Map New forecast layout! Learn more

10-Day Weather Forecast

Advertisements
Track Severe Weather on mobile